Time;durP1;ratioP1;P1;durP2;ratioP2;P2;SDS_P1;SDS_P2;PMS_P1;PMS_P2;Temp;Humidity;BMP_temperature;BMP_pressure;BME280_temperature;BME280_humidity;BME280_pressure;Samples;Min_cycle;Max_cycle;Signal;HPM_P1;HPM_P2
2022/12/17 13:06:40;;;;;;;7.03;5.33;;;;;;;13.38;72.57;94925.81;5048664;28;20641;-67
2022/12/17 13:09:14;;;;;;;7.77;5.33;;;;;;;13.29;72.68;94929.47;5036828;28;20233;-67
2022/12/17 13:11:45;;;;;;;6.10;5.50;;;;;;;13.11;74.65;94913.81;5046296;28;20275;-68
2022/12/17 13:14:33;;;;;;;8.50;5.70;;;;;;;13.15;74.58;94915.13;5056329;28;20241;-66
2022/12/17 13:17:24;;;;;;;6.97;5.47;;;;;;;13.32;73.86;94900.09;5004696;28;20230;-67
2022/12/17 13:19:55;;;;;;;4.87;4.17;;;;;;;13.48;73.60;94894.72;5012688;28;20214;-67
2022/12/17 13:22:21;;;;;;;7.87;5.00;;;;;;;13.49;73.28;94917.50;5024768;28;20217;-67
2022/12/17 13:24:50;;;;;;;5.73;3.90;;;;;;;13.46;73.28;94913.38;5025854;28;20241;-66
2022/12/17 13:27:37;;;;;;;4.87;4.43;;;;;;;13.41;73.48;94925.47;5006958;28;20269;-67
2022/12/17 13:30:20;;;;;;;6.90;5.23;;;;;;;13.49;73.63;94933.34;5002279;28;20230;-67
2022/12/17 13:33:04;;;;;;;6.53;4.47;;;;;;;13.47;73.39;94940.59;5013696;28;20218;-67
2022/12/17 13:36:02;;;;;;;5.67;4.37;;;;;;;13.46;73.04;94941.63;5026028;28;20304;-67
2022/12/17 13:38:42;;;;;;;5.03;4.57;;;;;;;13.35;73.07;94948.09;5021371;28;20249;-66
2022/12/17 13:41:15;;;;;;;8.93;4.20;;;;;;;13.39;72.95;94945.94;5021794;28;20238;-67
2022/12/17 13:43:46;;;;;;;5.30;4.80;;;;;;;13.35;73.25;94947.28;5006931;28;20179;-67
2022/12/17 13:46:42;;;;;;;4.57;3.90;;;;;;;13.29;73.09;94940.88;5004403;28;20752;-67
2022/12/17 13:49:19;;;;;;;5.20;4.70;;;;;;;13.21;72.53;94944.31;5019283;28;20242;-67
2022/12/17 13:51:45;;;;;;;6.27;4.83;;;;;;;12.94;73.38;94942.91;5013578;28;20260;-67
2022/12/17 13:54:16;;;;;;;7.07;4.70;;;;;;;13.11;73.49;94953.41;5030435;28;20234;-67
2022/12/17 13:56:43;;;;;;;5.30;4.40;;;;;;;13.09;73.49;94948.28;5027640;28;20223;-68
2022/12/17 13:59:23;;;;;;;5.93;4.80;;;;;;;13.12;73.81;94942.66;5017736;28;20248;-67
2022/12/17 14:01:52;;;;;;;5.80;4.80;;;;;;;13.23;73.77;94952.91;5024316;28;20182;-66
2022/12/17 14:04:27;;;;;;;6.23;5.33;;;;;;;13.37;73.55;94958.50;5046453;28;20186;-66
2022/12/17 14:06:56;;;;;;;7.00;5.83;;;;;;;13.40;73.07;94950.22;5021821;28;20233;-67
2022/12/17 14:09:31;;;;;;;6.20;5.23;;;;;;;13.34;72.89;94959.66;5030866;28;20268;-67
2022/12/17 14:14:47;;;;;;;9.07;6.40;;;;;;;13.27;73.09;94971.88;5039633;28;20237;-67
2022/12/17 14:17:18;;;;;;;7.73;6.53;;;;;;;13.24;73.09;94978.28;5039405;28;20286;-67
2022/12/17 14:19:44;;;;;;;7.97;6.80;;;;;;;13.18;73.09;94976.34;5036266;28;20212;-67
2022/12/17 14:22:27;;;;;;;8.53;7.03;;;;;;;13.18;72.99;94968.44;5048909;28;20273;-67
2022/12/17 14:24:52;;;;;;;8.23;7.40;;;;;;;13.09;73.52;94985.25;5045329;28;20213;-67
2022/12/17 14:27:24;;;;;;;8.07;7.23;;;;;;;13.12;73.59;94992.84;5050602;28;20222;-68
2022/12/17 14:29:49;;;;;;;9.60;7.70;;;;;;;13.12;73.42;94990.19;5033152;28;20229;-68
2022/12/17 14:32:31;;;;;;;8.50;7.33;;;;;;;13.11;73.50;94987.75;5026100;28;20300;-67
2022/12/17 14:34:58;;;;;;;13.27;11.10;;;;;;;12.96;73.58;94984.94;5029261;28;20226;-67
2022/12/17 14:37:25;;;;;;;9.00;8.10;;;;;;;12.78;74.63;94985.97;5019112;28;20297;-68
2022/12/17 14:40:01;;;;;;;10.70;8.17;;;;;;;12.85;74.14;94990.56;5054062;28;20229;-67
2022/12/17 14:42:31;;;;;;;8.80;7.90;;;;;;;12.75;74.20;94993.38;5044524;28;20244;-67
2022/12/17 14:45:04;;;;;;;9.67;7.77;;;;;;;12.66;74.71;94989.91;5039284;28;20225;-67
2022/12/17 14:47:32;;;;;;;11.27;9.00;;;;;;;12.66;74.82;94997.84;5044298;28;20222;-68
2022/12/17 14:50:00;;;;;;;11.73;9.63;;;;;;;12.59;74.92;95002.13;5037904;28;20248;-67
2022/12/17 14:52:45;;;;;;;12.00;10.03;;;;;;;12.54;75.13;95002.63;5048121;28;20221;-67
2022/12/17 14:55:56;;;;;;;13.10;10.37;;;;;;;12.45;75.35;95019.41;5037834;28;20284;-67
2022/12/17 14:58:24;;;;;;;10.03;8.73;;;;;;;12.39;75.79;95008.69;5033970;28;20245;-68
2022/12/17 15:00:58;;;;;;;13.10;10.37;;;;;;;12.37;75.53;95003.56;5050306;28;20284;-66
2022/12/17 15:03:27;;;;;;;11.60;10.13;;;;;;;12.36;75.93;94994.84;5027922;28;20224;-66
2022/12/17 15:05:58;;;;;;;15.03;10.80;;;;;;;12.33;75.51;95000.44;5022228;28;20547;-66
2022/12/17 15:08:24;;;;;;;12.60;10.87;;;;;;;12.37;75.32;95014.13;5027779;28;20233;-66
2022/12/17 15:10:50;;;;;;;13.23;11.67;;;;;;;12.33;75.37;95041.81;5033131;28;20186;-66
2022/12/17 15:13:16;;;;;;;14.63;13.13;;;;;;;11.70;77.70;95030.69;5033874;28;20255;-66
2022/12/17 15:15:41;;;;;;;14.10;12.67;;;;;;;11.77;77.63;95009.03;5029646;28;20225;-66
2022/12/17 15:18:07;;;;;;;15.27;13.77;;;;;;;11.81;77.04;95010.34;5033524;28;20256;-67
2022/12/17 15:20:32;;;;;;;13.17;11.87;;;;;;;11.35;78.28;95057.19;5041274;28;20226;-66
2022/12/17 15:22:59;;;;;;;10.97;9.83;;;;;;;11.34;77.94;95030.06;5038727;28;20235;-66
2022/12/17 15:25:24;;;;;;;9.67;8.33;;;;;;;11.55;77.50;95044.66;5027532;28;20185;-66
2022/12/17 15:27:50;;;;;;;9.90;8.87;;;;;;;11.67;76.73;95048.66;5019179;28;20596;-66
2022/12/17 15:30:16;;;;;;;10.73;8.67;;;;;;;11.75;76.29;95029.41;5026614;28;20232;-66
2022/12/17 15:32:42;;;;;;;8.77;7.87;;;;;;;11.80;75.74;95030.59;5004860;28;20242;-67
2022/12/17 15:35:10;;;;;;;9.40;8.47;;;;;;;11.82;75.48;95044.44;5027756;28;20221;-68
2022/12/17 15:37:35;;;;;;;10.70;9.60;;;;;;;11.77;75.56;95051.16;5049495;28;20297;-67
2022/12/17 15:40:01;;;;;;;11.70;9.10;;;;;;;11.73;75.70;95042.72;5049997;28;20189;-67
2022/12/17 15:45:11;;;;;;;11.83;9.97;;;;;;;11.80;75.51;95049.03;5039189;28;20232;-67
2022/12/17 15:47:36;;;;;;;12.90;9.40;;;;;;;11.79;75.52;95050.03;5040103;28;20300;-67
2022/12/17 15:50:02;;;;;;;12.20;10.07;;;;;;;11.70;75.26;95048.31;5033967;28;20214;-67
2022/12/17 15:52:28;;;;;;;11.27;9.57;;;;;;;11.54;75.62;95053.50;5025302;28;20191;-67
2022/12/17 15:54:53;;;;;;;11.43;9.70;;;;;;;11.48;76.34;95052.34;5021715;28;20302;-67
2022/12/17 15:57:19;;;;;;;11.77;9.77;;;;;;;11.53;76.25;95057.13;5019232;28;20223;-68
2022/12/17 15:59:44;;;;;;;13.27;10.70;;;;;;;11.52;76.30;95053.69;5033583;28;20362;-68
2022/12/17 16:02:10;;;;;;;14.30;10.80;;;;;;;11.57;75.98;95048.75;5042732;28;20226;-69
2022/12/17 16:04:36;;;;;;;13.37;11.30;;;;;;;11.53;75.66;95057.97;5029324;28;20189;-67
2022/12/17 16:07:02;;;;;;;16.27;12.40;;;;;;;11.51;76.18;95059.09;5035535;28;20220;-67
2022/12/17 16:09:28;;;;;;;16.67;13.17;;;;;;;11.35;76.03;95071.19;5045302;28;20233;-67
2022/12/17 16:11:53;;;;;;;16.03;14.23;;;;;;;11.41;76.60;95064.47;5035144;28;20219;-68
2022/12/17 16:14:19;;;;;;;14.17;12.67;;;;;;;11.51;75.82;95072.25;5030184;28;20252;-67
2022/12/17 16:16:44;;;;;;;15.20;13.10;;;;;;;11.48;75.42;95078.66;5044895;28;20308;-67
2022/12/17 16:19:10;;;;;;;15.30;13.70;;;;;;;11.46;75.61;95076.19;5043221;28;20183;-67
2022/12/17 16:21:35;;;;;;;15.33;13.43;;;;;;;11.41;75.54;95078.47;5036805;28;20237;-67
2022/12/17 16:24:01;;;;;;;17.50;15.10;;;;;;;11.45;75.19;95090.34;5044134;28;20226;-67
2022/12/17 16:26:26;;;;;;;18.43;15.27;;;;;;;11.40;75.24;95097.03;5043964;28;20217;-67
2022/12/17 16:28:52;;;;;;;18.60;14.87;;;;;;;11.13;76.12;95103.28;5041974;28;20223;-67
2022/12/17 16:31:17;;;;;;;16.57;14.67;;;;;;;11.07;76.36;95109.16;5050020;28;20300;-67
2022/12/17 16:33:44;;;;;;;17.70;14.83;;;;;;;10.85;77.16;95108.63;5027957;28;20219;-67
2022/12/17 16:36:15;;;;;;;18.10;16.20;;;;;;;10.88;77.24;95110.13;5050393;28;20226;-67
2022/12/17 16:39:07;;;;;;;17.80;15.67;;;;;;;11.11;76.48;95113.94;5047144;28;20261;-67
2022/12/17 16:41:33;;;;;;;18.70;15.17;;;;;;;11.14;75.55;95115.44;5039376;28;20222;-67
2022/12/17 16:43:59;;;;;;;22.07;18.20;;;;;;;11.09;75.67;95112.44;5049513;28;20221;-67
2022/12/17 16:46:31;;;;;;;20.87;18.57;;;;;;;11.14;75.22;95118.06;5047421;28;20197;-67
2022/12/17 16:48:59;;;;;;;21.10;17.00;;;;;;;11.16;74.84;95110.88;5045984;28;20217;-67
2022/12/17 16:51:26;;;;;;;21.57;17.90;;;;;;;11.16;75.01;95116.94;5046221;28;20226;-67
2022/12/17 16:53:52;;;;;;;26.47;23.43;;;;;;;11.26;74.82;95122.13;5041043;28;20313;-67
2022/12/17 16:56:20;;;;;;;22.10;19.73;;;;;;;11.22;74.94;95126.03;5048496;28;20294;-67
2022/12/17 16:58:46;;;;;;;23.97;20.43;;;;;;;11.18;75.04;95129.97;5041371;28;20186;-68
2022/12/17 17:01:11;;;;;;;19.90;17.63;;;;;;;11.23;74.55;95139.06;5040968;28;20189;-67
2022/12/17 17:03:41;;;;;;;22.07;19.40;;;;;;;11.21;74.77;95130.47;5048239;28;20305;-67
2022/12/17 17:06:07;;;;;;;22.23;19.33;;;;;;;11.19;74.88;95140.31;5036689;28;20225;-67
2022/12/17 17:08:37;;;;;;;25.77;20.53;;;;;;;11.17;74.74;95141.44;5028573;28;20226;-67
2022/12/17 17:11:15;;;;;;;25.27;21.83;;;;;;;11.20;74.87;95144.63;5024993;28;20230;-68
2022/12/17 17:13:41;;;;;;;29.73;23.73;;;;;;;11.11;74.75;95139.44;5039610;28;20268;-67
2022/12/17 17:16:08;;;;;;;28.53;24.40;;;;;;;11.11;74.68;95145.53;5048661;28;20204;-66
2022/12/17 17:18:35;;;;;;;28.17;23.70;;;;;;;11.11;74.56;95147.34;5048410;28;20308;-67
2022/12/17 17:21:18;;;;;;;25.50;22.57;;;;;;;11.10;74.83;95150.97;5048354;28;20237;-66
2022/12/17 17:23:50;;;;;;;29.50;23.50;;;;;;;10.92;74.86;95161.47;5038580;28;20232;-67
2022/12/17 17:26:16;;;;;;;29.63;22.87;;;;;;;10.97;74.54;95161.84;5041558;28;20213;-67
2022/12/17 17:28:44;;;;;;;26.67;22.87;;;;;;;10.90;74.72;95161.63;5042944;28;20269;-67
2022/12/17 17:31:12;;;;;;;24.40;21.73;;;;;;;10.81;75.07;95173.03;5042902;28;20179;-67
2022/12/17 17:33:41;;;;;;;26.30;23.10;;;;;;;10.80;75.24;95169.59;5026279;28;20222;-67
2022/12/17 17:36:16;;;;;;;24.50;21.90;;;;;;;10.82;75.07;95172.06;5023293;28;20218;-67
2022/12/17 17:38:42;;;;;;;26.63;23.73;;;;;;;10.79;75.00;95180.25;5025824;28;20740;-66
2022/12/17 17:41:11;;;;;;;27.03;23.67;;;;;;;10.78;75.45;95170.72;5034670;28;20241;-66
2022/12/17 17:43:36;;;;;;;26.50;23.07;;;;;;;10.79;75.03;95180.25;5027578;28;20190;-66
2022/12/17 17:46:11;;;;;;;30.87;25.10;;;;;;;10.82;74.92;95185.22;5020396;28;20185;-67
2022/12/17 17:48:37;;;;;;;28.67;25.30;;;;;;;10.87;74.75;95190.03;5024199;28;20246;-67
2022/12/17 17:51:12;;;;;;;29.43;26.07;;;;;;;10.61;75.18;95190.75;5020588;28;20249;-66
2022/12/17 17:53:38;;;;;;;30.03;25.97;;;;;;;10.76;74.84;95188.44;5040750;28;20221;-67
2022/12/17 17:56:06;;;;;;;29.43;25.73;;;;;;;10.74;74.96;95185.13;5044433;28;20272;-67
2022/12/17 17:58:33;;;;;;;30.93;27.63;;;;;;;10.66;74.89;95195.56;5015530;28;20466;-66
2022/12/17 18:00:59;;;;;;;32.43;29.13;;;;;;;10.68;75.19;95193.63;5022778;28;20250;-67
2022/12/17 18:03:24;;;;;;;35.90;28.00;;;;;;;10.57;75.34;95195.47;5029976;28;20233;-66
2022/12/17 18:05:50;;;;;;;37.23;28.63;;;;;;;10.63;75.03;95194.06;5019436;28;20218;-67
2022/12/17 18:08:15;;;;;;;30.17;26.53;;;;;;;10.69;74.52;95204.00;5041030;28;20305;-66
2022/12/17 18:10:42;;;;;;;31.20;25.17;;;;;;;10.49;75.21;95213.78;5036204;28;20194;-66
2022/12/17 18:15:51;;;;;;;25.13;21.93;;;;;;;10.54;75.06;95224.69;5042552;28;20233;-67
2022/12/17 18:18:17;;;;;;;29.13;24.57;;;;;;;10.57;75.01;95232.28;5048236;28;20229;-67
2022/12/17 18:20:42;;;;;;;27.97;24.97;;;;;;;10.56;75.05;95232.44;5042528;28;20225;-66
2022/12/17 18:23:08;;;;;;;26.53;23.13;;;;;;;10.59;75.09;95245.31;5036525;28;20229;-67
2022/12/17 18:25:33;;;;;;;27.80;24.47;;;;;;;10.58;74.62;95255.00;5047903;28;20197;-67
2022/12/17 18:27:59;;;;;;;28.03;24.10;;;;;;;10.59;74.37;95245.31;5038900;28;20236;-67
2022/12/17 18:30:24;;;;;;;28.63;24.57;;;;;;;10.47;75.01;95257.78;5031149;28;20719;-67
2022/12/17 18:32:50;;;;;;;29.40;26.23;;;;;;;10.37;75.20;95251.75;5033451;28;20225;-67
2022/12/17 18:35:15;;;;;;;30.47;24.97;;;;;;;10.47;75.01;95262.22;5043474;28;20226;-67
2022/12/17 18:37:41;;;;;;;30.23;24.67;;;;;;;10.34;75.39;95270.44;5044890;28;20210;-67
2022/12/17 18:40:07;;;;;;;33.57;28.67;;;;;;;10.42;76.07;95272.34;5046771;28;20191;-66
2022/12/17 18:45:17;;;;;;;32.67;29.27;;;;;;;10.41;76.73;95270.69;5037758;28;20233;-68
2022/12/17 18:47:43;;;;;;;32.83;28.67;;;;;;;10.48;76.84;95293.66;5044463;28;20229;-68
2022/12/17 18:50:10;;;;;;;32.00;28.57;;;;;;;10.20;77.65;95286.66;5041700;28;20309;-66
2022/12/17 18:52:37;;;;;;;31.90;28.40;;;;;;;10.33;77.79;95297.69;5041181;28;20386;-67
2022/12/17 18:55:04;;;;;;;35.03;30.13;;;;;;;10.13;77.52;95294.25;5043676;28;20190;-68
2022/12/17 18:57:29;;;;;;;34.17;30.50;;;;;;;10.23;77.85;95307.38;5036382;28;20229;-68
2022/12/17 18:59:55;;;;;;;36.03;30.23;;;;;;;10.21;77.73;95309.31;5044613;28;20225;-66
2022/12/17 19:02:21;;;;;;;38.13;32.50;;;;;;;10.03;78.83;95312.69;5035239;28;20230;-67
2022/12/17 19:04:46;;;;;;;34.67;30.83;;;;;;;10.01;78.68;95321.69;5039643;28;20197;-67
2022/12/17 19:07:12;;;;;;;34.17;30.10;;;;;;;10.10;78.68;95315.56;5039165;28;20301;-68
2022/12/17 19:09:39;;;;;;;31.80;28.40;;;;;;;10.15;78.05;95323.84;5033046;28;20222;-67
2022/12/17 19:12:06;;;;;;;33.83;30.33;;;;;;;10.15;78.36;95322.03;5043694;28;20222;-68
2022/12/17 19:14:31;;;;;;;32.00;27.57;;;;;;;10.22;77.96;95327.59;5047789;28;20217;-68
2022/12/17 19:16:57;;;;;;;29.90;26.70;;;;;;;9.82;79.47;95325.97;5049111;28;20305;-67
2022/12/17 19:19:23;;;;;;;31.23;28.13;;;;;;;9.99;78.92;95342.81;5045028;28;20190;-67
2022/12/17 19:21:50;;;;;;;29.43;24.70;;;;;;;9.90;79.00;95344.50;5046779;28;20245;-68
2022/12/17 19:24:17;;;;;;;28.17;25.17;;;;;;;9.87;79.68;95349.22;5037376;28;20308;-68
2022/12/17 19:26:43;;;;;;;25.70;23.10;;;;;;;9.93;79.36;95343.38;5042904;28;20228;-67
2022/12/17 19:29:11;;;;;;;26.03;23.23;;;;;;;9.82;79.54;95346.16;5041312;28;20248;-67
2022/12/17 19:31:36;;;;;;;26.93;24.03;;;;;;;9.76;80.12;95357.22;5045658;28;20190;-67
2022/12/17 19:34:05;;;;;;;26.13;22.27;;;;;;;9.80;80.07;95354.16;5041184;28;20224;-67
2022/12/17 19:36:32;;;;;;;24.73;22.13;;;;;;;9.54;81.02;95353.88;5050783;28;20282;-67
2022/12/17 19:39:01;;;;;;;23.40;21.13;;;;;;;9.66;80.67;95363.28;5047986;28;20279;-67
2022/12/17 19:41:28;;;;;;;24.10;21.60;;;;;;;9.55;80.73;95357.34;5046049;28;20270;-67
2022/12/17 19:43:56;;;;;;;23.37;20.97;;;;;;;9.69;79.94;95356.94;5038972;28;20229;-67
2022/12/17 19:46:23;;;;;;;22.13;19.93;;;;;;;9.72;80.13;95359.28;5043270;28;20275;-67
2022/12/17 19:48:50;;;;;;;21.57;19.37;;;;;;;9.66;79.67;95360.66;5039310;28;20350;-67
2022/12/17 19:51:18;;;;;;;21.73;19.53;;;;;;;9.84;79.66;95350.31;5047627;28;20225;-68
2022/12/17 19:53:45;;;;;;;20.23;18.17;;;;;;;9.69;79.84;95363.00;5045886;28;20230;-67
2022/12/17 19:56:31;;;;;;;20.33;18.13;;;;;;;9.40;81.09;95367.41;5023109;28;20223;-67
2022/12/17 19:59:03;;;;;;;20.10;18.00;;;;;;;9.46;81.18;95372.09;5030425;28;20221;-67
2022/12/17 20:01:35;;;;;;;19.13;17.23;;;;;;;9.76;80.24;95375.63;5027499;28;20233;-66
2022/12/17 20:04:00;;;;;;;19.27;17.47;;;;;;;9.50;80.73;95373.50;5043614;28;20218;-66
2022/12/17 20:06:29;;;;;;;19.63;17.63;;;;;;;9.46;80.92;95369.50;5034256;28;20217;-67
2022/12/17 20:08:56;;;;;;;19.60;17.20;;;;;;;9.63;80.72;95374.06;5029741;28;20223;-67
2022/12/17 20:11:33;;;;;;;21.30;17.87;;;;;;;9.68;80.14;95382.38;5028853;28;20218;-68
2022/12/17 20:14:03;;;;;;;18.97;17.07;;;;;;;9.80;79.63;95390.94;5028888;28;20222;-68
2022/12/17 20:16:31;;;;;;;18.47;16.73;;;;;;;9.70;79.70;95392.72;5041475;28;20253;-68
2022/12/17 20:18:59;;;;;;;18.13;16.33;;;;;;;9.72;79.90;95398.69;5041648;28;20246;-66
2022/12/17 20:21:25;;;;;;;17.70;15.97;;;;;;;9.81;79.35;95404.91;5033290;28;20249;-66
2022/12/17 20:23:50;;;;;;;18.47;16.57;;;;;;;9.78;79.32;95402.53;5029977;28;20234;-67
2022/12/17 20:26:16;;;;;;;19.27;17.17;;;;;;;9.73;79.71;95416.13;5027030;28;20219;-66
2022/12/17 20:28:43;;;;;;;16.47;14.77;;;;;;;9.83;79.19;95410.84;5015966;28;20237;-66
2022/12/17 20:31:09;;;;;;;17.80;15.37;;;;;;;9.99;78.73;95413.75;5034556;28;20200;-66
2022/12/17 20:33:34;;;;;;;16.93;15.10;;;;;;;9.96;78.20;95416.66;5047526;28;20217;-66
2022/12/17 20:36:05;;;;;;;17.43;15.57;;;;;;;10.07;77.87;95419.13;5038956;28;20233;-67
2022/12/17 20:38:31;;;;;;;18.07;15.77;;;;;;;10.08;77.86;95420.00;5041147;28;20221;-66
2022/12/17 20:40:57;;;;;;;16.80;14.80;;;;;;;10.20;77.64;95423.28;5040819;28;20229;-67
2022/12/17 20:43:22;;;;;;;17.93;15.80;;;;;;;10.04;77.65;95422.06;5048642;28;20210;-67
2022/12/17 20:45:50;;;;;;;17.53;15.70;;;;;;;10.20;77.53;95433.81;5038923;28;20218;-67
2022/12/17 20:48:16;;;;;;;16.57;14.87;;;;;;;10.07;77.94;95440.16;5040408;28;20226;-67
2022/12/17 20:50:42;;;;;;;16.83;15.07;;;;;;;10.00;77.71;95443.50;5041817;28;20256;-67
2022/12/17 20:53:08;;;;;;;17.37;15.53;;;;;;;9.89;77.50;95439.19;5041023;28;20252;-67
2022/12/17 20:55:33;;;;;;;16.63;15.03;;;;;;;9.98;77.00;95451.50;5032091;28;20187;-67
2022/12/17 20:57:59;;;;;;;15.83;14.13;;;;;;;10.00;76.40;95446.97;5037662;28;20209;-67
2022/12/17 21:00:24;;;;;;;16.30;14.73;;;;;;;9.66;77.84;95455.19;5032589;28;20271;-66
2022/12/17 21:02:50;;;;;;;15.33;13.83;;;;;;;9.66;77.53;95457.81;5042260;28;20243;-67
2022/12/17 21:05:16;;;;;;;15.37;13.87;;;;;;;9.56;77.42;95459.59;5042939;28;20711;-66
2022/12/17 21:07:43;;;;;;;15.40;13.87;;;;;;;9.76;77.23;95467.53;5042786;28;20339;-66
2022/12/17 21:10:09;;;;;;;15.63;14.13;;;;;;;9.69;76.93;95465.44;5040091;28;20193;-67
2022/12/17 21:15:18;;;;;;;16.13;14.23;;;;;;;9.41;77.88;95476.66;5040760;28;20232;-66
2022/12/17 21:17:44;;;;;;;14.73;13.30;;;;;;;9.53;77.15;95467.75;5051868;28;20222;-66
2022/12/17 21:20:10;;;;;;;14.33;12.83;;;;;;;9.48;77.46;95473.38;5025819;28;20233;-66
2022/12/17 21:22:35;;;;;;;14.43;13.03;;;;;;;9.57;76.99;95479.66;5040526;28;20278;-67
2022/12/17 21:25:01;;;;;;;15.30;13.90;;;;;;;9.47;77.34;95484.03;5050155;28;20205;-68
2022/12/17 21:27:27;;;;;;;14.40;13.00;;;;;;;9.48;77.26;95476.00;5049554;28;20301;-67
2022/12/17 21:29:52;;;;;;;15.30;13.80;;;;;;;9.43;77.40;95485.25;5037513;28;20214;-67
2022/12/17 21:32:18;;;;;;;14.43;12.93;;;;;;;9.47;77.74;95494.53;5036946;28;20221;-67
2022/12/17 21:34:43;;;;;;;12.87;11.57;;;;;;;9.52;76.86;95488.91;5062028;28;20186;-67
2022/12/17 21:37:10;;;;;;;13.40;12.10;;;;;;;9.49;76.73;95487.38;5039554;28;20265;-67
2022/12/17 21:39:35;;;;;;;13.83;12.43;;;;;;;9.61;76.12;95490.69;5049978;28;20360;-68
2022/12/17 21:44:44;;;;;;;13.70;12.33;;;;;;;9.70;75.26;95496.00;5040667;28;20228;-67
2022/12/17 21:47:10;;;;;;;11.57;10.43;;;;;;;9.72;75.04;95503.72;5050168;28;20218;-68
2022/12/17 21:49:35;;;;;;;12.97;10.93;;;;;;;9.52;75.32;95502.84;5045918;28;20210;-67
2022/12/17 21:52:01;;;;;;;11.50;10.30;;;;;;;9.61;74.81;95503.84;5038893;28;20287;-68
2022/12/17 21:54:26;;;;;;;10.23;9.23;;;;;;;9.57;74.65;95511.16;5042958;28;20225;-68
2022/12/17 21:56:52;;;;;;;11.63;10.53;;;;;;;9.55;74.66;95518.31;5025953;28;20285;-67
2022/12/17 21:59:17;;;;;;;11.57;9.60;;;;;;;9.42;75.02;95515.94;5019188;28;20226;-67
2022/12/17 22:01:43;;;;;;;12.00;10.83;;;;;;;9.55;74.65;95518.31;5025445;28;20190;-68
2022/12/17 22:04:08;;;;;;;10.37;9.37;;;;;;;9.61;73.87;95512.53;5036037;28;20225;-69
2022/12/17 22:06:37;;;;;;;9.97;8.97;;;;;;;9.48;73.21;95520.63;5033741;28;20244;-67
2022/12/17 22:09:04;;;;;;;9.23;8.27;;;;;;;9.55;73.36;95523.56;5030604;28;20638;-67
2022/12/17 22:11:30;;;;;;;9.43;8.50;;;;;;;9.60;73.57;95528.44;5027680;28;20221;-66
2022/12/17 22:14:02;;;;;;;12.73;10.17;;;;;;;9.33;73.85;95524.59;5024449;28;20353;-67
2022/12/17 22:16:35;;;;;;;10.03;9.13;;;;;;;9.37;73.96;95525.16;5024580;28;20207;-68
2022/12/17 22:19:06;;;;;;;9.27;8.37;;;;;;;9.47;73.72;95526.84;5015550;28;20583;-68
2022/12/17 22:21:36;;;;;;;9.30;8.47;;;;;;;9.46;73.20;95529.59;5017714;28;20341;-67
2022/12/17 22:24:02;;;;;;;8.93;8.03;;;;;;;9.43;73.11;95533.31;5017664;28;20245;-67
2022/12/17 22:26:28;;;;;;;10.07;9.13;;;;;;;9.42;73.11;95528.22;5020562;28;20222;-68
2022/12/17 22:28:54;;;;;;;15.87;14.27;;;;;;;9.53;72.58;95524.66;5024393;28;20215;-67
2022/12/17 22:34:06;;;;;;;10.87;9.77;;;;;;;9.56;72.03;95535.72;5025629;28;20317;-68
2022/12/17 22:36:32;;;;;;;9.17;8.37;;;;;;;9.24;72.19;95528.81;5024304;28;20276;-68
2022/12/17 22:39:03;;;;;;;8.73;7.83;;;;;;;9.19;72.91;95538.06;5033673;28;20218;-68
2022/12/17 22:44:12;;;;;;;6.73;6.13;;;;;;;9.32;71.49;95543.09;5022937;28;20222;-67
2022/12/17 22:46:39;;;;;;;6.23;5.70;;;;;;;9.22;72.03;95537.78;5021199;28;20178;-67
2022/12/17 22:49:04;;;;;;;6.43;5.67;;;;;;;9.42;71.39;95542.16;5024011;28;20195;-68
2022/12/17 22:51:30;;;;;;;5.80;5.30;;;;;;;9.43;70.63;95545.63;5016336;28;20225;-67
2022/12/17 22:53:59;;;;;;;5.63;5.13;;;;;;;9.54;69.58;95549.94;5016961;28;20238;-67
2022/12/17 22:56:24;;;;;;;4.77;4.37;;;;;;;9.34;69.84;95557.75;5034641;28;20217;-68
2022/12/17 22:58:49;;;;;;;4.50;4.10;;;;;;;9.32;69.52;95554.41;5036322;28;20269;-67
2022/12/17 23:01:15;;;;;;;6.00;4.63;;;;;;;9.35;69.58;95556.78;5037776;28;20186;-67
2022/12/17 23:03:40;;;;;;;5.00;4.50;;;;;;;9.27;69.43;95557.44;5018847;28;20227;-68
2022/12/17 23:06:14;;;;;;;4.67;4.27;;;;;;;9.19;69.85;95565.13;5028750;28;20344;-67
2022/12/17 23:08:40;;;;;;;4.23;3.87;;;;;;;9.23;69.00;95557.84;5029120;28;20218;-67
2022/12/17 23:11:12;;;;;;;4.03;3.73;;;;;;;9.18;69.07;95557.38;5029087;28;20220;-67
2022/12/17 23:13:38;;;;;;;4.90;4.50;;;;;;;9.21;69.03;95568.44;5022968;28;20216;-67
2022/12/17 23:16:04;;;;;;;5.70;5.20;;;;;;;9.08;69.45;95578.31;5021722;28;20268;-67
2022/12/17 23:18:31;;;;;;;4.50;4.07;;;;;;;9.05;70.08;95584.66;5015979;28;20298;-67
2022/12/17 23:21:05;;;;;;;4.27;3.87;;;;;;;9.20;68.88;95576.47;5019407;28;20253;-67
2022/12/17 23:23:31;;;;;;;4.17;3.77;;;;;;;9.10;67.86;95588.69;5012774;28;20238;-67
2022/12/17 23:25:56;;;;;;;4.60;4.20;;;;;;;8.80;69.06;95591.13;5018971;28;20214;-67
2022/12/17 23:28:21;;;;;;;4.73;4.33;;;;;;;8.98;68.43;95582.66;5020656;28;20206;-66
2022/12/17 23:30:47;;;;;;;4.83;4.43;;;;;;;8.86;68.59;95584.53;5025686;28;20226;-67
2022/12/17 23:33:12;;;;;;;5.33;4.33;;;;;;;8.80;68.91;95606.84;5045002;28;20216;-67
2022/12/17 23:35:38;;;;;;;4.30;3.93;;;;;;;8.81;68.74;95591.94;5042758;28;20226;-66
2022/12/17 23:38:03;;;;;;;5.27;4.77;;;;;;;8.86;68.84;95602.88;5044261;28;20253;-67
2022/12/17 23:40:29;;;;;;;4.63;4.20;;;;;;;8.88;68.33;95610.63;5038406;28;20190;-66
2022/12/17 23:42:56;;;;;;;5.23;4.73;;;;;;;9.00;67.40;95612.22;5042001;28;20278;-66
2022/12/17 23:45:21;;;;;;;4.50;4.10;;;;;;;8.56;68.31;95621.97;5039554;28;20225;-66
2022/12/17 23:47:47;;;;;;;4.77;4.37;;;;;;;8.23;69.90;95615.81;5043556;28;20462;-66
2022/12/17 23:50:13;;;;;;;4.23;3.83;;;;;;;8.36;69.50;95626.16;5054251;28;20213;-67
2022/12/17 23:52:38;;;;;;;4.30;3.90;;;;;;;8.48;68.97;95633.06;5047633;28;20255;-68
2022/12/17 23:55:04;;;;;;;4.57;4.17;;;;;;;8.43;69.09;95637.03;5046841;28;20198;-66
2022/12/17 23:57:30;;;;;;;4.80;4.30;;;;;;;8.44;67.31;95630.81;5040306;28;20222;-66
2022/12/17 23:59:55;;;;;;;4.07;3.77;;;;;;;8.32;67.73;95645.72;5043705;28;20221;-67
